Time;durP1;ratioP1;P1;durP2;ratioP2;P2;SDS_P1;SDS_P2;PMS_P1;PMS_P2;Temp;Humidity;BMP_temperature;BMP_pressure;BME280_temperature;BME280_humidity;BME280_pressure;Samples;Min_cycle;Max_cycle;Signal;HPM_P1;HPM_P2
2023/05/15 00:00:23;;;;;;;3.60;3.30;;;;;;;;;;5092542;28;20236;-78
2023/05/15 00:02:49;;;;;;;4.10;3.27;;;;;;;;;;5091646;28;20210;-78
2023/05/15 00:05:14;;;;;;;3.70;3.40;;;;;;;;;;5091580;28;20172;-78
2023/05/15 00:07:40;;;;;;;3.87;3.57;;;;;;;;;;5093934;28;20194;-78
2023/05/15 00:10:05;;;;;;;4.07;3.70;;;;;;;;;;5085729;28;20175;-78
2023/05/15 00:12:31;;;;;;;3.93;3.50;;;;;;;;;;5086995;28;20217;-78
2023/05/15 00:14:56;;;;;;;4.03;3.50;;;;;;;;;;5092021;28;20183;-79
2023/05/15 00:17:21;;;;;;;3.47;3.17;;;;;;;;;;5104279;28;20214;-78
2023/05/15 00:19:46;;;;;;;3.97;3.57;;;;;;;;;;5091314;28;20207;-78
2023/05/15 00:22:12;;;;;;;4.33;3.93;;;;;;;;;;5088085;28;20274;-78
2023/05/15 00:24:37;;;;;;;4.43;4.03;;;;;;;;;;5091747;28;20183;-78
2023/05/15 00:27:03;;;;;;;4.13;3.73;;;;;;;;;;5093069;28;20184;-78
2023/05/15 00:29:28;;;;;;;4.03;3.63;;;;;;;;;;5090120;28;20195;-78
2023/05/15 00:31:53;;;;;;;5.23;4.33;;;;;;;;;;5092759;28;20212;-78
2023/05/15 00:34:19;;;;;;;5.17;4.53;;;;;;;;;;5091525;28;20183;-78
2023/05/15 00:36:44;;;;;;;4.37;3.97;;;;;;;;;;5089146;28;20235;-78
2023/05/15 00:39:09;;;;;;;4.73;4.33;;;;;;;;;;5099303;28;20187;-78
2023/05/15 00:41:35;;;;;;;4.80;4.17;;;;;;;;;;5090611;28;20183;-78
2023/05/15 00:44:00;;;;;;;4.47;4.07;;;;;;;;;;5093318;28;20194;-78
2023/05/15 00:46:29;;;;;;;4.70;4.27;;;;;;;;;;5087021;28;20172;-78
2023/05/15 00:48:55;;;;;;;5.03;4.63;;;;;;;;;;5092989;28;20183;-79
2023/05/15 00:51:20;;;;;;;4.90;4.50;;;;;;;;;;5093076;28;20202;-79
2023/05/15 00:53:46;;;;;;;5.00;4.60;;;;;;;;;;5091993;28;20176;-79
2023/05/15 00:56:11;;;;;;;5.73;4.33;;;;;;;;;;5090435;28;20176;-79
2023/05/15 00:58:37;;;;;;;5.73;5.23;;;;;;;;;;5092638;28;20230;-79
2023/05/15 01:01:02;;;;;;;5.73;5.23;;;;;;;;;;5081411;28;20184;-79
2023/05/15 01:03:27;;;;;;;5.93;4.67;;;;;;;;;;5089837;28;20195;-79
2023/05/15 01:05:53;;;;;;;5.33;4.83;;;;;;;;;;5092411;28;20184;-79
2023/05/15 01:08:37;;;;;;;6.20;5.60;;;;;;;;;;5092205;28;20201;-79
2023/05/15 01:11:03;;;;;;;6.50;5.83;;;;;;;;;;5091039;28;20182;-79
2023/05/15 01:13:28;;;;;;;4.83;4.43;;;;;;;;;;5091394;28;20199;-78
2023/05/15 01:15:53;;;;;;;7.37;5.20;;;;;;;;;;5091181;28;20176;-78
2023/05/15 01:18:18;;;;;;;6.10;5.43;;;;;;;;;;5090866;28;20199;-79
2023/05/15 01:20:46;;;;;;;7.37;5.20;;;;;;;;;;5085511;28;20187;-79
2023/05/15 01:23:19;;;;;;;4.30;3.90;;;;;;;;;;5090954;28;20234;-79
2023/05/15 01:26:03;;;;;;;4.40;4.00;;;;;;;;;;5091354;28;20222;-79
2023/05/15 01:28:35;;;;;;;4.67;3.80;;;;;;;;;;5089459;28;20173;-78
2023/05/15 01:31:05;;;;;;;4.23;3.83;;;;;;;;;;5090253;28;20200;-79
2023/05/15 01:33:34;;;;;;;5.10;4.17;;;;;;;;;;5091387;28;20184;-79
2023/05/15 01:36:35;;;;;;;4.50;4.10;;;;;;;;;;5091284;28;20232;-78
2023/05/15 01:39:01;;;;;;;6.23;4.50;;;;;;;;;;5010820;28;20234;-79
2023/05/15 01:41:44;;;;;;;4.87;4.47;;;;;;;;;;4991975;28;20225;-79
2023/05/15 01:44:09;;;;;;;5.97;4.70;;;;;;;;;;5008047;28;20270;-79
2023/05/15 01:46:37;;;;;;;4.90;4.37;;;;;;;;;;5011494;28;20198;-79
2023/05/15 01:49:02;;;;;;;4.77;4.27;;;;;;;;;;4994250;28;20170;-79
2023/05/15 01:51:29;;;;;;;5.93;4.30;;;;;;;;;;4995364;28;20181;-79
2023/05/15 01:53:57;;;;;;;4.67;4.27;;;;;;;;;;5006203;28;20198;-79
2023/05/15 01:56:23;;;;;;;4.70;4.30;;;;;;;;;;4993012;28;20211;-79
2023/05/15 01:58:49;;;;;;;5.47;4.97;;;;;;;;;;4993319;28;20210;-79
2023/05/15 02:01:15;;;;;;;4.60;4.20;;;;;;;;;;4992905;28;20177;-79
2023/05/15 02:03:41;;;;;;;5.00;4.47;;;;;;;;;;4990330;28;20205;-79
2023/05/15 02:06:06;;;;;;;6.20;4.80;;;;;;;;;;5012079;28;20266;-75
2023/05/15 02:08:31;;;;;;;4.73;4.33;;;;;;;;;;5008109;28;20197;-75
2023/05/15 02:10:58;;;;;;;5.20;4.80;;;;;;;;;;5007849;28;20180;-75
2023/05/15 02:13:24;;;;;;;4.87;4.40;;;;;;;;;;5059953;28;20282;-75
2023/05/15 02:15:50;;;;;;;4.83;4.43;;;;;;;;;;5092923;28;20188;-75
2023/05/15 02:18:15;;;;;;;4.73;4.23;;;;;;;;;;5088754;28;20255;-75
2023/05/15 02:20:40;;;;;;;4.90;4.50;;;;;;;;;;5090894;28;20215;-75
2023/05/15 02:23:05;;;;;;;5.87;4.90;;;;;;;;;;5088350;28;20178;-75
2023/05/15 02:25:54;;;;;;;4.90;4.50;;;;;;;;;;5089204;28;20193;-75
2023/05/15 02:28:40;;;;;;;6.33;5.30;;;;;;;;;;5071697;28;20198;-75
2023/05/15 02:31:09;;;;;;;5.33;4.83;;;;;;;;;;5068395;28;20218;-75
2023/05/15 02:33:44;;;;;;;6.00;4.80;;;;;;;;;;5089237;28;20186;-75
2023/05/15 02:36:11;;;;;;;5.23;4.53;;;;;;;;;;5084402;28;20226;-75
2023/05/15 02:38:39;;;;;;;5.20;4.70;;;;;;;;;;5085241;28;20203;-75
2023/05/15 02:41:05;;;;;;;5.97;5.37;;;;;;;;;;5088527;28;20188;-75
2023/05/15 02:43:30;;;;;;;5.90;5.40;;;;;;;;;;5087281;28;20175;-75
2023/05/15 02:45:56;;;;;;;5.57;5.07;;;;;;;;;;5088500;28;20209;-75
2023/05/15 02:48:21;;;;;;;6.20;5.30;;;;;;;;;;5092515;28;20179;-75
2023/05/15 02:50:47;;;;;;;6.80;5.70;;;;;;;;;;5092647;28;20211;-75
2023/05/15 02:53:14;;;;;;;6.20;5.60;;;;;;;;;;5092785;28;20186;-75
2023/05/15 02:55:40;;;;;;;7.43;6.73;;;;;;;;;;5092156;28;20285;-75
2023/05/15 02:58:05;;;;;;;7.47;6.67;;;;;;;;;;5091788;28;20277;-75
2023/05/15 03:00:30;;;;;;;6.37;5.77;;;;;;;;;;5089801;28;20184;-75
2023/05/15 03:02:55;;;;;;;7.30;5.30;;;;;;;;;;5089641;28;20198;-75
2023/05/15 03:05:21;;;;;;;5.97;5.37;;;;;;;;;;5090798;28;20211;-75
2023/05/15 03:07:46;;;;;;;6.10;5.60;;;;;;;;;;5091397;28;20179;-75
2023/05/15 03:10:11;;;;;;;6.07;5.53;;;;;;;;;;5091954;28;20190;-75
2023/05/15 03:12:37;;;;;;;5.67;5.00;;;;;;;;;;5089414;28;20175;-75
2023/05/15 03:15:03;;;;;;;6.10;5.57;;;;;;;;;;5092262;28;20362;-75
2023/05/15 03:17:28;;;;;;;8.83;5.50;;;;;;;;;;5097830;28;20293;-75
2023/05/15 03:19:53;;;;;;;6.03;5.50;;;;;;;;;;5089187;28;20187;-75
2023/05/15 03:22:18;;;;;;;6.27;5.67;;;;;;;;;;5092042;28;20323;-75
2023/05/15 03:24:44;;;;;;;5.67;5.17;;;;;;;;;;5088507;28;20175;-75
2023/05/15 03:27:09;;;;;;;5.93;5.37;;;;;;;;;;5093071;28;20243;-75
2023/05/15 03:29:34;;;;;;;5.83;5.23;;;;;;;;;;5090357;28;20189;-75
2023/05/15 03:31:59;;;;;;;7.33;5.87;;;;;;;;;;5092205;28;20319;-75
2023/05/15 03:34:25;;;;;;;6.50;5.90;;;;;;;;;;5093696;28;20185;-75
2023/05/15 03:36:50;;;;;;;7.13;6.47;;;;;;;;;;5087846;28;20366;-75
2023/05/15 03:39:15;;;;;;;6.67;6.07;;;;;;;;;;5090577;28;20176;-75
2023/05/15 03:41:40;;;;;;;6.70;6.07;;;;;;;;;;5086558;28;20204;-75
2023/05/15 03:44:06;;;;;;;7.97;7.13;;;;;;;;;;5089383;28;20195;-75
2023/05/15 03:46:31;;;;;;;7.77;7.00;;;;;;;;;;5090104;28;20191;-75
2023/05/15 03:48:56;;;;;;;8.50;7.10;;;;;;;;;;5090954;28;20209;-75
2023/05/15 03:51:22;;;;;;;8.63;7.30;;;;;;;;;;5091381;28;20185;-75
2023/05/15 03:53:47;;;;;;;9.20;7.53;;;;;;;;;;5083164;28;20230;-75
2023/05/15 03:56:13;;;;;;;8.40;7.60;;;;;;;;;;5093634;28;20179;-75
2023/05/15 03:58:38;;;;;;;7.97;6.83;;;;;;;;;;5089306;28;20194;-75
2023/05/15 04:01:03;;;;;;;8.30;7.50;;;;;;;;;;5088803;28;20186;-75
2023/05/15 04:03:28;;;;;;;10.87;8.03;;;;;;;;;;5089589;28;20203;-75
2023/05/15 04:05:53;;;;;;;9.10;8.20;;;;;;;;;;5092228;28;20198;-75
2023/05/15 04:08:19;;;;;;;9.10;8.20;;;;;;;;;;5090360;28;20185;-75
2023/05/15 04:10:44;;;;;;;9.00;8.10;;;;;;;;;;5087905;28;20180;-75
2023/05/15 04:13:09;;;;;;;9.40;7.87;;;;;;;;;;5089576;28;20182;-75
2023/05/15 04:15:35;;;;;;;8.70;7.80;;;;;;;;;;5091672;28;20177;-75
2023/05/15 04:18:00;;;;;;;9.90;8.67;;;;;;;;;;5089248;28;20240;-75
2023/05/15 04:20:25;;;;;;;9.53;8.53;;;;;;;;;;5090127;28;20237;-75
2023/05/15 04:22:51;;;;;;;9.97;9.07;;;;;;;;;;5090746;28;20244;-75
2023/05/15 04:25:16;;;;;;;10.00;9.00;;;;;;;;;;5095576;28;20242;-75
2023/05/15 04:27:42;;;;;;;70.30;38.93;;;;;;;;;;5087092;28;20195;-75
2023/05/15 04:30:11;;;;;;;15.40;12.27;;;;;;;;;;5088485;28;20183;-75
2023/05/15 04:32:37;;;;;;;10.67;8.93;;;;;;;;;;5091927;28;20184;-75
2023/05/15 04:35:04;;;;;;;9.60;8.50;;;;;;;;;;5088535;28;20236;-75
2023/05/15 04:37:29;;;;;;;9.93;8.87;;;;;;;;;;5091221;28;20215;-75
2023/05/15 04:39:54;;;;;;;9.70;8.67;;;;;;;;;;5091927;28;20212;-75
2023/05/15 04:42:20;;;;;;;9.23;8.33;;;;;;;;;;5088475;28;20203;-75
2023/05/15 04:44:45;;;;;;;10.00;9.00;;;;;;;;;;5087801;28;20203;-75
2023/05/15 04:47:10;;;;;;;10.63;9.13;;;;;;;;;;5092143;28;20225;-75
2023/05/15 04:49:36;;;;;;;10.93;8.97;;;;;;;;;;5093158;28;20177;-75
2023/05/15 04:52:01;;;;;;;10.97;9.27;;;;;;;;;;5089461;28;20186;-77
2023/05/15 04:54:26;;;;;;;9.27;8.33;;;;;;;;;;5090765;28;20175;-75
2023/05/15 04:56:51;;;;;;;9.70;8.73;;;;;;;;;;5089757;28;20181;-75
2023/05/15 04:59:17;;;;;;;9.50;8.50;;;;;;;;;;5090675;28;20180;-75
2023/05/15 05:01:42;;;;;;;11.17;8.70;;;;;;;;;;5088459;28;20187;-75
2023/05/15 05:04:07;;;;;;;9.47;8.53;;;;;;;;;;5086230;28;20206;-75
2023/05/15 05:06:32;;;;;;;8.97;7.90;;;;;;;;;;5089206;28;20176;-74
2023/05/15 05:08:58;;;;;;;9.70;7.77;;;;;;;;;;5089896;28;20187;-75
2023/05/15 05:11:23;;;;;;;10.57;8.20;;;;;;;;;;5090249;28;20194;-75
2023/05/15 05:13:48;;;;;;;9.93;8.40;;;;;;;;;;5087155;28;20259;-75
2023/05/15 05:16:13;;;;;;;10.70;8.93;;;;;;;;;;5091561;28;20247;-75
2023/05/15 05:18:38;;;;;;;8.93;8.13;;;;;;;;;;5087906;28;20341;-75
2023/05/15 05:21:04;;;;;;;11.00;8.30;;;;;;;;;;5082714;28;20188;-75
2023/05/15 05:23:29;;;;;;;11.37;8.90;;;;;;;;;;5083495;28;20193;-75
2023/05/15 05:25:54;;;;;;;8.63;7.73;;;;;;;;;;5108689;27;20190;-75
2023/05/15 05:28:20;;;;;;;8.80;7.90;;;;;;;;;;5084312;28;20177;-75
2023/05/15 05:30:45;;;;;;;9.80;8.60;;;;;;;;;;5087073;28;20251;-75
2023/05/15 05:33:11;;;;;;;9.00;7.97;;;;;;;;;;5103705;27;20184;-75
2023/05/15 05:35:36;;;;;;;8.20;7.40;;;;;;;;;;5084295;28;20219;-75
2023/05/15 05:38:03;;;;;;;8.77;7.73;;;;;;;;;;5079377;28;20272;-75
2023/05/15 05:40:28;;;;;;;10.23;7.10;;;;;;;;;;5088951;28;20224;-75
2023/05/15 05:42:53;;;;;;;8.10;7.30;;;;;;;;;;5081767;28;20183;-75
2023/05/15 05:45:19;;;;;;;10.63;8.07;;;;;;;;;;5089173;28;20216;-75
2023/05/15 05:47:44;;;;;;;7.83;7.13;;;;;;;;;;5092708;28;20209;-75
2023/05/15 05:50:09;;;;;;;7.53;5.83;;;;;;;;;;5089080;28;20184;-75
2023/05/15 05:52:34;;;;;;;8.13;6.87;;;;;;;;;;5088384;28;20180;-75
2023/05/15 05:55:00;;;;;;;8.13;6.50;;;;;;;;;;5085534;28;20241;-75
2023/05/15 05:57:25;;;;;;;7.17;6.57;;;;;;;;;;5082886;28;20208;-75
2023/05/15 05:59:50;;;;;;;7.17;6.57;;;;;;;;;;5082722;28;20176;-75
2023/05/15 06:02:15;;;;;;;8.07;7.07;;;;;;;;;;5089918;28;20217;-75
2023/05/15 06:04:41;;;;;;;6.87;6.23;;;;;;;;;;5090894;28;20258;-75
2023/05/15 06:07:06;;;;;;;6.90;6.20;;;;;;;;;;5091422;28;20180;-75
2023/05/15 06:09:31;;;;;;;6.53;5.93;;;;;;;;;;5089640;28;20175;-75
2023/05/15 06:11:56;;;;;;;6.77;6.17;;;;;;;;;;5083490;28;20180;-75
2023/05/15 06:14:22;;;;;;;7.50;6.30;;;;;;;;;;5091175;28;20183;-75
2023/05/15 06:16:47;;;;;;;6.07;5.53;;;;;;;;;;5086216;28;20180;-75
2023/05/15 06:19:12;;;;;;;7.27;6.57;;;;;;;;;;5087052;28;20204;-75
2023/05/15 06:21:37;;;;;;;6.37;5.40;;;;;;;;;;5090024;28;20263;-75
2023/05/15 06:24:03;;;;;;;6.27;5.67;;;;;;;;;;5088831;28;20172;-75
2023/05/15 06:26:28;;;;;;;5.50;5.00;;;;;;;;;;5092897;28;20275;-75
2023/05/15 06:28:53;;;;;;;7.07;5.67;;;;;;;;;;5094434;28;20199;-75
2023/05/15 06:31:19;;;;;;;5.70;5.20;;;;;;;;;;5091934;28;20172;-75
2023/05/15 06:33:44;;;;;;;6.23;5.63;;;;;;;;;;5092597;28;20195;-75
2023/05/15 06:36:09;;;;;;;5.53;5.03;;;;;;;;;;5090779;28;20318;-75
2023/05/15 06:38:34;;;;;;;6.23;5.73;;;;;;;;;;5093260;28;20225;-75
2023/05/15 06:41:00;;;;;;;6.60;6.00;;;;;;;;;;5095103;28;20223;-75
2023/05/15 06:43:25;;;;;;;6.53;5.93;;;;;;;;;;5096095;28;20188;-75
2023/05/15 06:45:50;;;;;;;5.47;4.97;;;;;;;;;;5093888;28;20182;-75
2023/05/15 06:48:15;;;;;;;5.27;4.77;;;;;;;;;;5095440;28;20267;-75
2023/05/15 06:50:41;;;;;;;6.00;5.50;;;;;;;;;;5091088;28;20188;-76
2023/05/15 06:53:06;;;;;;;5.10;4.60;;;;;;;;;;5092459;28;20169;-75
2023/05/15 06:55:33;;;;;;;5.40;4.90;;;;;;;;;;5092966;28;20177;-75
2023/05/15 06:57:58;;;;;;;5.33;4.83;;;;;;;;;;5090707;28;20215;-75
2023/05/15 07:00:23;;;;;;;5.13;4.63;;;;;;;;;;5090121;28;20177;-75
2023/05/15 07:02:48;;;;;;;5.30;4.80;;;;;;;;;;5093048;28;20240;-75
2023/05/15 07:05:13;;;;;;;4.20;3.37;;;;;;;;;;5089890;28;20183;-75
2023/05/15 07:07:38;;;;;;;4.50;4.10;;;;;;;;;;5093731;28;20422;-75
2023/05/15 07:10:04;;;;;;;4.23;3.87;;;;;;;;;;5092319;28;20180;-75
2023/05/15 07:12:29;;;;;;;4.60;4.00;;;;;;;;;;5091410;28;20180;-75
2023/05/15 07:14:55;;;;;;;3.67;3.37;;;;;;;;;;5090433;28;20268;-75
2023/05/15 07:17:20;;;;;;;3.70;3.40;;;;;;;;;;5090811;28;20198;-75
2023/05/15 07:19:45;;;;;;;4.73;4.33;;;;;;;;;;5091721;28;20231;-75
2023/05/15 07:22:10;;;;;;;4.10;3.80;;;;;;;;;;5092428;28;20216;-76
2023/05/15 07:24:37;;;;;;;3.70;3.40;;;;;;;;;;5085261;28;20185;-75
2023/05/15 07:27:02;;;;;;;4.80;4.40;;;;;;;;;;5088448;28;20168;-75
2023/05/15 07:29:27;;;;;;;5.87;4.17;;;;;;;;;;5091036;28;20249;-75
2023/05/15 07:31:52;;;;;;;3.90;3.50;;;;;;;;;;5092238;28;20185;-76
2023/05/15 07:34:18;;;;;;;4.10;3.70;;;;;;;;;;5090129;28;20214;-75
2023/05/15 07:36:43;;;;;;;4.70;4.30;;;;;;;;;;5091227;28;20249;-75
2023/05/15 07:39:08;;;;;;;5.03;3.30;;;;;;;;;;5091102;28;20223;-76
2023/05/15 07:41:34;;;;;;;4.07;3.67;;;;;;;;;;5081300;28;20204;-78
2023/05/15 07:44:02;;;;;;;3.73;3.43;;;;;;;;;;5084208;28;20190;-75
2023/05/15 07:46:27;;;;;;;4.00;3.60;;;;;;;;;;5092188;28;20232;-76
2023/05/15 07:48:53;;;;;;;3.77;3.47;;;;;;;;;;5092120;28;20270;-75
2023/05/15 07:51:18;;;;;;;3.87;3.57;;;;;;;;;;5088916;28;20179;-76
2023/05/15 07:53:43;;;;;;;4.10;3.70;;;;;;;;;;5090236;28;20167;-76
2023/05/15 07:56:09;;;;;;;3.63;3.30;;;;;;;;;;5091572;28;20177;-76
2023/05/15 07:58:36;;;;;;;6.97;4.13;;;;;;;;;;5091291;28;20312;-76
2023/05/15 08:01:01;;;;;;;4.27;3.87;;;;;;;;;;5093143;28;20208;-76
2023/05/15 08:03:27;;;;;;;5.30;4.43;;;;;;;;;;5092001;28;20203;-76
2023/05/15 08:05:52;;;;;;;4.37;4.07;;;;;;;;;;5092800;28;20169;-75
2023/05/15 08:08:17;;;;;;;5.30;4.77;;;;;;;;;;5093522;28;20199;-76
2023/05/15 08:10:42;;;;;;;3.97;3.67;;;;;;;;;;5091173;28;20199;-76
2023/05/15 08:13:07;;;;;;;4.47;4.07;;;;;;;;;;5092553;28;20188;-76
2023/05/15 08:15:33;;;;;;;4.73;4.33;;;;;;;;;;5093016;28;20222;-76
2023/05/15 08:17:58;;;;;;;4.70;4.30;;;;;;;;;;5090320;28;20199;-76
2023/05/15 08:20:23;;;;;;;5.20;4.40;;;;;;;;;;5091466;28;20179;-76
2023/05/15 08:22:48;;;;;;;5.23;3.80;;;;;;;;;;5091707;28;20178;-76
2023/05/15 08:25:13;;;;;;;3.87;3.57;;;;;;;;;;5089476;28;20169;-76
2023/05/15 08:27:39;;;;;;;3.50;3.20;;;;;;;;;;5099009;28;20183;-76
2023/05/15 08:30:04;;;;;;;3.90;3.60;;;;;;;;;;5093761;28;20174;-76
2023/05/15 08:32:29;;;;;;;5.57;4.70;;;;;;;;;;5088612;28;20178;-76
2023/05/15 08:34:54;;;;;;;5.17;4.77;;;;;;;;;;5090359;28;20176;-76
2023/05/15 08:37:20;;;;;;;4.20;3.90;;;;;;;;;;5091700;28;20237;-76
2023/05/15 08:39:45;;;;;;;3.23;2.93;;;;;;;;;;5090284;28;20207;-76
2023/05/15 08:42:15;;;;;;;4.77;3.80;;;;;;;;;;5090906;28;20271;-76
2023/05/15 08:44:41;;;;;;;3.70;3.40;;;;;;;;;;5090919;28;20280;-76
2023/05/15 08:47:06;;;;;;;3.60;3.30;;;;;;;;;;5090565;28;20238;-76
2023/05/15 08:49:31;;;;;;;4.47;3.60;;;;;;;;;;5089837;28;20180;-76
2023/05/15 08:51:57;;;;;;;3.50;3.20;;;;;;;;;;5091172;28;20175;-76
2023/05/15 08:54:23;;;;;;;4.10;3.73;;;;;;;;;;5091782;28;20168;-76
2023/05/15 08:56:48;;;;;;;3.93;3.63;;;;;;;;;;5090900;28;20207;-76
2023/05/15 08:59:13;;;;;;;5.60;3.73;;;;;;;;;;5089923;28;20240;-76
2023/05/15 09:01:38;;;;;;;3.67;3.13;;;;;;;;;;5091288;28;20237;-76
2023/05/15 09:04:04;;;;;;;4.23;3.60;;;;;;;;;;5091461;28;20184;-76
2023/05/15 09:06:29;;;;;;;4.07;3.67;;;;;;;;;;5090278;28;20175;-76
2023/05/15 09:08:55;;;;;;;4.47;4.03;;;;;;;;;;5091360;28;20165;-77
2023/05/15 09:11:22;;;;;;;4.10;3.37;;;;;;;;;;5093096;28;20177;-76
2023/05/15 09:13:48;;;;;;;3.23;3.03;;;;;;;;;;5097872;28;20234;-76
2023/05/15 09:16:13;;;;;;;4.00;3.70;;;;;;;;;;5089921;28;20203;-76
2023/05/15 09:18:39;;;;;;;3.70;3.40;;;;;;;;;;5091593;28;20262;-76
2023/05/15 09:21:24;;;;;;;3.27;3.07;;;;;;;;;;5090322;28;20178;-76
2023/05/15 09:23:49;;;;;;;3.80;3.50;;;;;;;;;;5087280;28;20185;-76
2023/05/15 09:26:14;;;;;;;4.17;3.70;;;;;;;;;;5097664;28;20201;-76
2023/05/15 09:28:40;;;;;;;4.03;3.63;;;;;;;;;;5097996;28;20206;-76
2023/05/15 09:31:06;;;;;;;3.20;3.00;;;;;;;;;;5089592;28;20238;-76
2023/05/15 09:33:34;;;;;;;3.40;3.10;;;;;;;;;;5090306;28;20178;-76
2023/05/15 09:36:00;;;;;;;3.60;3.30;;;;;;;;;;5089565;28;20227;-76
2023/05/15 09:38:26;;;;;;;4.33;4.03;;;;;;;;;;5090034;28;20205;-76
2023/05/15 09:40:59;;;;;;;4.40;3.23;;;;;;;;;;5089977;28;20226;-77
2023/05/15 09:43:26;;;;;;;3.17;2.97;;;;;;;;;;5088487;28;20263;-77
2023/05/15 09:45:52;;;;;;;3.90;3.60;;;;;;;;;;5087899;28;20175;-76
2023/05/15 09:48:17;;;;;;;3.57;3.27;;;;;;;;;;5089917;28;20182;-76
2023/05/15 09:50:42;;;;;;;4.83;4.33;;;;;;;;;;5084525;28;20191;-77
2023/05/15 09:53:10;;;;;;;3.80;3.50;;;;;;;;;;5091085;28;20183;-76
2023/05/15 09:55:35;;;;;;;3.57;3.27;;;;;;;;;;5084734;28;20183;-77
2023/05/15 09:58:05;;;;;;;3.50;3.20;;;;;;;;;;5089369;28;20223;-77
2023/05/15 10:00:31;;;;;;;5.20;3.57;;;;;;;;;;5090406;28;20184;-76
2023/05/15 10:03:03;;;;;;;3.40;3.20;;;;;;;;;;5089740;28;20207;-76
2023/05/15 10:05:29;;;;;;;4.20;3.30;;;;;;;;;;5087508;28;20254;-77
2023/05/15 10:07:57;;;;;;;3.43;3.17;;;;;;;;;;5086320;28;20180;-77
2023/05/15 10:10:23;;;;;;;3.70;3.40;;;;;;;;;;5089796;28;20267;-77
2023/05/15 10:12:49;;;;;;;3.50;3.20;;;;;;;;;;5097049;28;20267;-77
2023/05/15 10:15:15;;;;;;;4.20;3.70;;;;;;;;;;5088932;28;20180;-77
2023/05/15 10:17:42;;;;;;;5.53;3.73;;;;;;;;;;5089798;28;20204;-77
2023/05/15 10:20:08;;;;;;;3.97;3.63;;;;;;;;;;5091200;28;20245;-77
2023/05/15 10:22:36;;;;;;;3.27;2.80;;;;;;;;;;5089663;28;20169;-76
2023/05/15 10:25:02;;;;;;;3.87;3.47;;;;;;;;;;5092072;28;20164;-77
2023/05/15 10:27:29;;;;;;;3.53;3.23;;;;;;;;;;5091058;28;20184;-77
2023/05/15 10:29:55;;;;;;;4.00;3.63;;;;;;;;;;5089550;28;20187;-77
2023/05/15 10:32:20;;;;;;;3.97;3.17;;;;;;;;;;5088581;28;20166;-77
2023/05/15 10:34:47;;;;;;;5.00;3.87;;;;;;;;;;5088892;28;20177;-77
2023/05/15 10:37:13;;;;;;;4.23;3.93;;;;;;;;;;5089836;28;20450;-77
2023/05/15 10:39:39;;;;;;;10.10;4.43;;;;;;;;;;5089638;28;20278;-77
2023/05/15 10:42:05;;;;;;;3.87;3.57;;;;;;;;;;5089273;28;20191;-77
2023/05/15 10:44:30;;;;;;;4.50;4.10;;;;;;;;;;5089570;28;20176;-77
2023/05/15 10:46:56;;;;;;;3.60;3.30;;;;;;;;;;5089228;28;20289;-77
2023/05/15 10:49:21;;;;;;;3.60;3.30;;;;;;;;;;5088273;28;20218;-77
2023/05/15 10:51:46;;;;;;;3.90;3.60;;;;;;;;;;5089701;28;20172;-77
2023/05/15 10:54:12;;;;;;;3.53;3.23;;;;;;;;;;5090583;28;20238;-77
2023/05/15 10:56:37;;;;;;;3.73;3.47;;;;;;;;;;5089459;28;20208;-76
2023/05/15 10:59:09;;;;;;;3.73;3.43;;;;;;;;;;5084515;28;20207;-77
2023/05/15 11:01:36;;;;;;;3.80;3.30;;;;;;;;;;5089777;28;20196;-77
2023/05/15 11:04:11;;;;;;;3.83;3.40;;;;;;;;;;5085242;28;20208;-77
2023/05/15 11:06:38;;;;;;;3.40;3.20;;;;;;;;;;5084891;28;20270;-77
2023/05/15 11:09:24;;;;;;;3.97;3.67;;;;;;;;;;5092107;28;20174;-77
2023/05/15 11:11:54;;;;;;;3.07;2.87;;;;;;;;;;5090183;28;20189;-77
2023/05/15 11:14:20;;;;;;;4.80;3.47;;;;;;;;;;5092857;28;20276;-77
2023/05/15 11:16:52;;;;;;;2.73;2.53;;;;;;;;;;5087322;28;20266;-77
2023/05/15 11:19:21;;;;;;;3.40;3.10;;;;;;;;;;5092920;28;20198;-77
2023/05/15 11:21:46;;;;;;;3.30;2.40;;;;;;;;;;5093917;28;20181;-77
2023/05/15 11:24:11;;;;;;;3.37;2.50;;;;;;;;;;5088836;28;20179;-77
2023/05/15 11:26:41;;;;;;;4.97;3.30;;;;;;;;;;5099833;28;20181;-77
2023/05/15 11:29:16;;;;;;;3.60;3.23;;;;;;;;;;5086060;28;20169;-77
2023/05/15 11:31:42;;;;;;;3.63;3.23;;;;;;;;;;5100234;28;20216;-77
2023/05/15 11:34:07;;;;;;;2.73;2.53;;;;;;;;;;5089685;28;20179;-77
2023/05/15 11:36:32;;;;;;;3.50;2.90;;;;;;;;;;5091610;28;20222;-77
2023/05/15 11:38:58;;;;;;;3.23;2.93;;;;;;;;;;5092861;28;20250;-77
2023/05/15 11:41:30;;;;;;;3.00;2.80;;;;;;;;;;5092492;28;20190;-77
2023/05/15 11:43:56;;;;;;;3.10;2.90;;;;;;;;;;5093833;28;20234;-77
2023/05/15 11:46:21;;;;;;;3.43;3.13;;;;;;;;;;5093388;28;20180;-77
2023/05/15 11:48:48;;;;;;;2.97;2.77;;;;;;;;;;5090593;28;20171;-77
2023/05/15 11:51:21;;;;;;;3.70;3.40;;;;;;;;;;5108636;28;20194;-77
2023/05/15 11:53:48;;;;;;;3.10;2.80;;;;;;;;;;5093326;28;20178;-77
2023/05/15 11:56:21;;;;;;;4.80;2.93;;;;;;;;;;5086592;28;20173;-77
2023/05/15 11:58:50;;;;;;;2.67;2.47;;;;;;;;;;5091969;28;20225;-77
2023/05/15 12:01:15;;;;;;;4.77;2.97;;;;;;;;;;5091777;28;20178;-77
2023/05/15 12:03:41;;;;;;;2.83;2.63;;;;;;;;;;5094525;28;20201;-77
2023/05/15 12:06:06;;;;;;;3.40;3.10;;;;;;;;;;5089137;28;20189;-77
2023/05/15 12:08:32;;;;;;;3.77;2.67;;;;;;;;;;5087002;28;20180;-77
2023/05/15 12:10:58;;;;;;;2.90;2.70;;;;;;;;;;5090960;28;20188;-77
2023/05/15 12:13:23;;;;;;;3.53;3.23;;;;;;;;;;5091919;28;20186;-77
2023/05/15 12:15:48;;;;;;;3.40;3.10;;;;;;;;;;5092527;28;20250;-77
2023/05/15 12:18:14;;;;;;;3.10;2.90;;;;;;;;;;5092647;28;20200;-77
2023/05/15 12:20:43;;;;;;;3.07;2.77;;;;;;;;;;5089728;28;20181;-77
2023/05/15 12:23:08;;;;;;;3.00;2.80;;;;;;;;;;5088513;28;20191;-77
2023/05/15 12:25:37;;;;;;;3.17;2.83;;;;;;;;;;5087637;28;20179;-77
2023/05/15 12:28:04;;;;;;;3.13;2.70;;;;;;;;;;5091260;28;20194;-77
2023/05/15 12:30:30;;;;;;;2.60;2.40;;;;;;;;;;5092761;28;20274;-77
2023/05/15 12:32:59;;;;;;;3.60;3.30;;;;;;;;;;5092093;28;20256;-77
2023/05/15 12:35:25;;;;;;;3.80;3.40;;;;;;;;;;5087788;28;20235;-77
2023/05/15 12:37:50;;;;;;;3.77;3.27;;;;;;;;;;5088409;28;20208;-77
2023/05/15 12:40:19;;;;;;;3.57;3.27;;;;;;;;;;5088307;28;20161;-77
2023/05/15 12:42:44;;;;;;;3.73;3.43;;;;;;;;;;5088099;28;20185;-77
2023/05/15 12:45:16;;;;;;;3.80;3.23;;;;;;;;;;5095394;28;20162;-76
2023/05/15 12:47:46;;;;;;;3.00;2.80;;;;;;;;;;5089609;28;20198;-76
2023/05/15 12:50:12;;;;;;;3.30;3.00;;;;;;;;;;5099183;28;20177;-76
2023/05/15 12:52:38;;;;;;;3.90;3.60;;;;;;;;;;5090840;28;20174;-76
2023/05/15 12:55:04;;;;;;;3.57;3.27;;;;;;;;;;5091154;28;20176;-76
2023/05/15 12:57:29;;;;;;;3.13;2.83;;;;;;;;;;5089322;28;20232;-76
2023/05/15 12:59:54;;;;;;;3.20;2.90;;;;;;;;;;5091879;28;20220;-81
2023/05/15 13:02:20;;;;;;;3.80;3.00;;;;;;;;;;5090779;28;20190;-81
2023/05/15 13:04:45;;;;;;;3.23;2.93;;;;;;;;;;5091653;28;20182;-81
2023/05/15 13:07:15;;;;;;;3.50;3.07;;;;;;;;;;5090948;28;20201;-81
2023/05/15 13:09:40;;;;;;;3.73;3.37;;;;;;;;;;5089840;28;20182;-81
2023/05/15 13:12:05;;;;;;;3.70;3.40;;;;;;;;;;5090530;28;20178;-81
2023/05/15 13:14:31;;;;;;;3.90;3.60;;;;;;;;;;5085166;28;20186;-81
2023/05/15 13:16:58;;;;;;;3.50;3.20;;;;;;;;;;5090121;28;20173;-81
2023/05/15 13:19:23;;;;;;;3.80;3.50;;;;;;;;;;5089149;28;20217;-81
2023/05/15 13:21:49;;;;;;;3.87;3.43;;;;;;;;;;5091471;28;20166;-81
2023/05/15 13:24:14;;;;;;;3.63;3.33;;;;;;;;;;5091153;28;20170;-81
2023/05/15 13:26:40;;;;;;;3.37;3.00;;;;;;;;;;5090995;28;20169;-81
2023/05/15 13:29:05;;;;;;;3.50;3.20;;;;;;;;;;5090914;28;20173;-81
2023/05/15 13:31:31;;;;;;;3.57;2.57;;;;;;;;;;5086685;28;20191;-77
2023/05/15 13:33:56;;;;;;;4.00;3.13;;;;;;;;;;5084837;28;20250;-76
2023/05/15 13:36:21;;;;;;;2.87;2.63;;;;;;;;;;5088768;28;20230;-76
2023/05/15 13:38:46;;;;;;;2.63;2.10;;;;;;;;;;5090508;28;20207;-76
2023/05/15 13:41:11;;;;;;;2.30;2.17;;;;;;;;;;5087887;28;20203;-76
2023/05/15 13:43:37;;;;;;;3.57;2.40;;;;;;;;;;5090871;28;20175;-76
2023/05/15 13:46:03;;;;;;;3.10;2.10;;;;;;;;;;5087168;28;20173;-76
2023/05/15 13:48:28;;;;;;;2.47;2.00;;;;;;;;;;5086710;28;20180;-76
2023/05/15 13:50:53;;;;;;;2.33;2.20;;;;;;;;;;5090184;28;20185;-76
2023/05/15 13:53:19;;;;;;;2.20;2.10;;;;;;;;;;5089630;28;20174;-76
2023/05/15 13:55:44;;;;;;;2.43;2.23;;;;;;;;;;5086466;28;20219;-76
2023/05/15 13:58:10;;;;;;;2.17;1.90;;;;;;;;;;5093864;28;20245;-76
2023/05/15 14:00:36;;;;;;;2.50;2.30;;;;;;;;;;5091105;28;20241;-76
2023/05/15 14:03:01;;;;;;;2.90;2.00;;;;;;;;;;5090100;28;20193;-76
2023/05/15 14:05:26;;;;;;;2.90;2.30;;;;;;;;;;5084919;28;20203;-76
2023/05/15 14:07:52;;;;;;;2.50;2.30;;;;;;;;;;5090852;28;20202;-76
2023/05/15 14:10:17;;;;;;;2.87;2.30;;;;;;;;;;5088404;28;20225;-75
2023/05/15 14:12:42;;;;;;;3.10;2.90;;;;;;;;;;5089373;28;20199;-76
2023/05/15 14:15:10;;;;;;;3.47;2.53;;;;;;;;;;5087807;28;20188;-76
2023/05/15 14:17:35;;;;;;;3.33;3.00;;;;;;;;;;5088599;28;20183;-76
2023/05/15 14:20:00;;;;;;;3.87;3.10;;;;;;;;;;5086421;28;20169;-76
2023/05/15 14:22:25;;;;;;;3.70;3.40;;;;;;;;;;5084307;28;20251;-76
2023/05/15 14:24:51;;;;;;;3.03;2.77;;;;;;;;;;5079070;28;20208;-76
2023/05/15 14:27:16;;;;;;;4.60;2.90;;;;;;;;;;5083625;28;20169;-76
2023/05/15 14:29:43;;;;;;;3.40;3.10;;;;;;;;;;5091052;28;20192;-80
2023/05/15 14:32:09;;;;;;;3.60;3.30;;;;;;;;;;5096147;28;20183;-76
2023/05/15 14:34:34;;;;;;;3.50;3.20;;;;;;;;;;5085618;28;20181;-76
2023/05/15 14:37:18;;;;;;;3.57;3.27;;;;;;;;;;5088402;28;20225;-76